sensor_id;sensor_type;location;lat;lon;timestamp;pressure;altitude;pressure_sealevel;temperature;humidity
62072;BME280;48031;48.542;13.232;2023-09-12T00:01:59;97069.81;;;22.90;95.20
62072;BME280;48031;48.542;13.232;2023-09-12T00:06:02;97064.59;;;23.21;92.71
62072;BME280;48031;48.542;13.232;2023-09-12T00:10:05;97060.69;;;23.23;93.98
62072;BME280;48031;48.542;13.232;2023-09-12T00:14:09;97068.50;;;23.20;94.01
62072;BME280;48031;48.542;13.232;2023-09-12T00:18:11;97068.03;;;23.06;94.48
62072;BME280;48031;48.542;13.232;2023-09-12T00:22:14;97072.88;;;23.09;94.17
62072;BME280;48031;48.542;13.232;2023-09-12T00:26:16;97062.34;;;23.03;95.66
62072;BME280;48031;48.542;13.232;2023-09-12T00:30:19;97060.13;;;22.96;96.72
62072;BME280;48031;48.542;13.232;2023-09-12T00:34:21;97067.22;;;23.06;94.26
62072;BME280;48031;48.542;13.232;2023-09-12T00:38:23;97054.69;;;22.88;97.00
62072;BME280;48031;48.542;13.232;2023-09-12T00:42:25;97053.06;;;22.87;96.43
62072;BME280;48031;48.542;13.232;2023-09-12T00:46:29;97054.31;;;22.68;97.85
62072;BME280;48031;48.542;13.232;2023-09-12T00:50:31;97060.13;;;23.29;94.35
62072;BME280;48031;48.542;13.232;2023-09-12T00:54:34;97053.81;;;23.08;94.88
62072;BME280;48031;48.542;13.232;2023-09-12T00:58:37;97056.38;;;23.13;93.37
62072;BME280;48031;48.542;13.232;2023-09-12T01:02:41;97058.53;;;22.54;97.51
62072;BME280;48031;48.542;13.232;2023-09-12T01:06:43;97066.88;;;22.24;99.31
62072;BME280;48031;48.542;13.232;2023-09-12T01:10:47;97072.75;;;22.44;97.86
62072;BME280;48031;48.542;13.232;2023-09-12T01:14:50;97064.44;;;22.64;95.88
62072;BME280;48031;48.542;13.232;2023-09-12T01:18:52;97064.59;;;22.47;97.58
62072;BME280;48031;48.542;13.232;2023-09-12T01:27:41;97054.53;;;22.63;96.90
62072;BME280;48031;48.542;13.232;2023-09-12T01:31:46;97065.81;;;22.08;99.18
62072;BME280;48031;48.542;13.232;2023-09-12T01:35:49;97060.00;;;22.30;99.80
62072;BME280;48031;48.542;13.232;2023-09-12T01:39:51;97053.44;;;22.14;99.89
62072;BME280;48031;48.542;13.232;2023-09-12T01:43:54;97056.47;;;21.92;100.00
62072;BME280;48031;48.542;13.232;2023-09-12T01:47:58;97058.94;;;22.23;100.00
62072;BME280;48031;48.542;13.232;2023-09-12T01:52:00;97060.38;;;22.20;100.00
62072;BME280;48031;48.542;13.232;2023-09-12T01:56:03;97061.69;;;21.85;100.00
62072;BME280;48031;48.542;13.232;2023-09-12T02:00:07;97064.66;;;22.18;100.00
62072;BME280;48031;48.542;13.232;2023-09-12T02:04:10;97064.59;;;22.26;100.00
62072;BME280;48031;48.542;13.232;2023-09-12T02:08:12;97067.78;;;21.70;100.00
62072;BME280;48031;48.542;13.232;2023-09-12T02:12:14;97066.97;;;21.78;100.00
62072;BME280;48031;48.542;13.232;2023-09-12T02:16:16;97059.78;;;22.15;100.00
62072;BME280;48031;48.542;13.232;2023-09-12T02:20:18;97070.41;;;21.11;100.00
62072;BME280;48031;48.542;13.232;2023-09-12T02:24:21;97061.50;;;21.61;100.00
62072;BME280;48031;48.542;13.232;2023-09-12T02:28:24;97053.28;;;21.81;100.00
62072;BME280;48031;48.542;13.232;2023-09-12T02:32:27;97049.31;;;21.91;100.00
62072;BME280;48031;48.542;13.232;2023-09-12T02:36:28;97056.94;;;21.94;100.00
62072;BME280;48031;48.542;13.232;2023-09-12T02:40:30;97059.50;;;21.70;100.00
62072;BME280;48031;48.542;13.232;2023-09-12T02:44:32;97066.66;;;21.71;100.00
62072;BME280;48031;48.542;13.232;2023-09-12T02:48:34;97056.78;;;21.61;100.00
62072;BME280;48031;48.542;13.232;2023-09-12T02:52:36;97067.59;;;21.37;100.00
62072;BME280;48031;48.542;13.232;2023-09-12T02:56:39;97072.47;;;21.78;100.00
62072;BME280;48031;48.542;13.232;2023-09-12T03:00:41;97060.03;;;21.92;100.00
62072;BME280;48031;48.542;13.232;2023-09-12T03:04:43;97058.13;;;21.55;100.00
62072;BME280;48031;48.542;13.232;2023-09-12T03:08:46;97066.66;;;21.24;100.00
62072;BME280;48031;48.542;13.232;2023-09-12T03:12:49;97068.50;;;21.58;100.00
62072;BME280;48031;48.542;13.232;2023-09-12T03:16:51;97066.34;;;21.64;100.00
62072;BME280;48031;48.542;13.232;2023-09-12T03:20:54;97084.16;;;19.60;100.00
62072;BME280;48031;48.542;13.232;2023-09-12T03:24:57;97080.00;;;20.62;100.00
62072;BME280;48031;48.542;13.232;2023-09-12T03:28:59;97068.63;;;21.15;100.00
62072;BME280;48031;48.542;13.232;2023-09-12T03:33:02;97063.38;;;21.39;100.00
62072;BME280;48031;48.542;13.232;2023-09-12T03:37:05;97073.53;;;20.58;100.00
62072;BME280;48031;48.542;13.232;2023-09-12T03:41:07;97078.56;;;20.82;100.00
62072;BME280;48031;48.542;13.232;2023-09-12T03:45:10;97067.63;;;21.28;100.00
62072;BME280;48031;48.542;13.232;2023-09-12T03:49:14;97071.28;;;20.60;100.00
62072;BME280;48031;48.542;13.232;2023-09-12T03:53:18;97073.38;;;21.52;100.00
62072;BME280;48031;48.542;13.232;2023-09-12T03:57:21;97077.31;;;21.43;99.54
62072;BME280;48031;48.542;13.232;2023-09-12T04:01:24;97084.75;;;20.61;100.00
62072;BME280;48031;48.542;13.232;2023-09-12T04:05:26;97084.06;;;20.82;97.93
62072;BME280;48031;48.542;13.232;2023-09-12T04:09:29;97082.13;;;20.56;100.00
62072;BME280;48031;48.542;13.232;2023-09-12T04:13:33;97080.81;;;21.05;100.00
62072;BME280;48031;48.542;13.232;2023-09-12T04:17:37;97084.34;;;20.28;100.00
62072;BME280;48031;48.542;13.232;2023-09-12T04:21:40;97080.34;;;20.60;98.90
62072;BME280;48031;48.542;13.232;2023-09-12T04:25:45;97080.81;;;20.45;98.08
62072;BME280;48031;48.542;13.232;2023-09-12T04:29:47;97087.63;;;20.56;98.43
62072;BME280;48031;48.542;13.232;2023-09-12T04:33:51;97088.13;;;20.58;98.63
62072;BME280;48031;48.542;13.232;2023-09-12T04:37:53;97105.16;;;20.43;99.51
62072;BME280;48031;48.542;13.232;2023-09-12T04:41:56;97097.72;;;19.96;100.00
62072;BME280;48031;48.542;13.232;2023-09-12T04:45:59;97087.16;;;20.71;97.43
62072;BME280;48031;48.542;13.232;2023-09-12T04:50:02;97104.66;;;20.32;99.90
62072;BME280;48031;48.542;13.232;2023-09-12T04:54:05;97107.69;;;20.22;100.00
62072;BME280;48031;48.542;13.232;2023-09-12T04:58:08;97106.88;;;20.30;100.00
62072;BME280;48031;48.542;13.232;2023-09-12T05:02:10;97102.09;;;20.88;98.95
62072;BME280;48031;48.542;13.232;2023-09-12T05:06:12;97090.09;;;20.84;98.70
62072;BME280;48031;48.542;13.232;2023-09-12T05:10:16;97102.41;;;20.60;100.00
62072;BME280;48031;48.542;13.232;2023-09-12T05:14:18;97091.22;;;21.00;99.76
62072;BME280;48031;48.542;13.232;2023-09-12T05:18:22;97102.41;;;21.21;99.50
62072;BME280;48031;48.542;13.232;2023-09-12T05:22:25;97104.50;;;20.46;100.00
62072;BME280;48031;48.542;13.232;2023-09-12T05:26:28;97103.94;;;21.47;96.61
62072;BME280;48031;48.542;13.232;2023-09-12T05:30:31;97107.59;;;20.96;97.51
62072;BME280;48031;48.542;13.232;2023-09-12T05:34:34;97101.41;;;21.25;97.91
62072;BME280;48031;48.542;13.232;2023-09-12T05:38:36;97094.34;;;21.91;95.52
62072;BME280;48031;48.542;13.232;2023-09-12T05:42:39;97108.09;;;21.71;98.04
62072;BME280;48031;48.542;13.232;2023-09-12T05:46:41;97107.19;;;21.49;99.46
62072;BME280;48031;48.542;13.232;2023-09-12T05:50:44;97117.13;;;21.88;95.85
62072;BME280;48031;48.542;13.232;2023-09-12T05:54:46;97123.69;;;21.75;96.89
62072;BME280;48031;48.542;13.232;2023-09-12T05:58:49;97116.94;;;21.93;94.62
62072;BME280;48031;48.542;13.232;2023-09-12T06:02:53;97116.38;;;21.71;95.17
62072;BME280;48031;48.542;13.232;2023-09-12T06:06:55;97121.22;;;21.74;95.13
62072;BME280;48031;48.542;13.232;2023-09-12T06:10:57;97126.81;;;22.12;94.42
62072;BME280;48031;48.542;13.232;2023-09-12T06:14:59;97115.50;;;22.46;94.70
62072;BME280;48031;48.542;13.232;2023-09-12T06:19:01;97113.44;;;22.43;95.81
62072;BME280;48031;48.542;13.232;2023-09-12T06:23:03;97110.84;;;22.88;94.44
62072;BME280;48031;48.542;13.232;2023-09-12T06:27:05;97105.09;;;22.93;95.74
62072;BME280;48031;48.542;13.232;2023-09-12T06:31:08;97117.00;;;22.73;98.75
62072;BME280;48031;48.542;13.232;2023-09-12T06:35:11;97115.31;;;23.13;97.42
62072;BME280;48031;48.542;13.232;2023-09-12T06:39:13;97104.78;;;23.28;97.68
62072;BME280;48031;48.542;13.232;2023-09-12T06:43:15;97115.16;;;22.56;100.00
62072;BME280;48031;48.542;13.232;2023-09-12T06:47:17;97128.16;;;22.56;99.75
62072;BME280;48031;48.542;13.232;2023-09-12T06:51:23;97128.53;;;22.75;99.73
62072;BME280;48031;48.542;13.232;2023-09-12T06:55:28;97119.88;;;23.63;96.39
62072;BME280;48031;48.542;13.232;2023-09-12T06:59:31;97125.22;;;23.35;100.00
62072;BME280;48031;48.542;13.232;2023-09-12T07:03:34;97128.28;;;23.99;96.57
62072;BME280;48031;48.542;13.232;2023-09-12T07:07:36;97133.25;;;23.16;100.00
62072;BME280;48031;48.542;13.232;2023-09-12T07:11:38;97137.28;;;23.18;100.00
62072;BME280;48031;48.542;13.232;2023-09-12T07:15:40;97138.47;;;23.30;100.00
62072;BME280;48031;48.542;13.232;2023-09-12T07:19:43;97140.72;;;23.15;100.00
62072;BME280;48031;48.542;13.232;2023-09-12T07:23:48;97144.84;;;23.63;100.00
62072;BME280;48031;48.542;13.232;2023-09-12T07:27:50;97150.84;;;23.65;100.00
62072;BME280;48031;48.542;13.232;2023-09-12T07:31:55;97140.44;;;23.50;100.00
62072;BME280;48031;48.542;13.232;2023-09-12T07:36:01;97148.84;;;23.98;100.00
62072;BME280;48031;48.542;13.232;2023-09-12T07:40:05;97147.38;;;24.37;100.00
62072;BME280;48031;48.542;13.232;2023-09-12T07:44:11;61634.44;;;-142.07;100.00
62072;BME280;48031;48.542;13.232;2023-09-12T07:48:13;97144.69;;;25.45;90.04
62072;BME280;48031;48.542;13.232;2023-09-12T07:52:16;97146.22;;;25.86;89.28
62072;BME280;48031;48.542;13.232;2023-09-12T07:56:17;97139.25;;;26.08;89.49
62072;BME280;48031;48.542;13.232;2023-09-12T08:00:19;97144.53;;;26.13;89.61
62072;BME280;48031;48.542;13.232;2023-09-12T08:04:22;97151.88;;;26.21;88.92
62072;BME280;48031;48.542;13.232;2023-09-12T08:08:24;97157.91;;;26.07;90.23
62072;BME280;48031;48.542;13.232;2023-09-12T08:12:27;97157.63;;;26.44;88.98
62072;BME280;48031;48.542;13.232;2023-09-12T08:16:30;97158.69;;;25.92;90.40
62072;BME280;48031;48.542;13.232;2023-09-12T08:20:33;97147.63;;;26.59;89.16
62072;BME280;48031;48.542;13.232;2023-09-12T08:24:36;97150.06;;;25.97;87.85
62072;BME280;48031;48.542;13.232;2023-09-12T08:28:38;97142.78;;;27.06;86.57
62072;BME280;48031;48.542;13.232;2023-09-12T08:32:40;97152.28;;;26.86;85.44
62072;BME280;48031;48.542;13.232;2023-09-12T08:36:46;97142.34;;;27.23;86.15
62072;BME280;48031;48.542;13.232;2023-09-12T08:40:50;97145.41;;;26.99;85.90
62072;BME280;48031;48.542;13.232;2023-09-12T08:44:52;97156.13;;;27.16;85.47
62072;BME280;48031;48.542;13.232;2023-09-12T08:48:55;97156.34;;;28.07;84.98
62072;BME280;48031;48.542;13.232;2023-09-12T08:52:57;97155.41;;;27.39;84.21
62072;BME280;48031;48.542;13.232;2023-09-12T08:57:10;97146.50;;;28.14;82.00
62072;BME280;48031;48.542;13.232;2023-09-12T09:01:14;97141.28;;;28.87;80.57
62072;BME280;48031;48.542;13.232;2023-09-12T09:05:18;97138.66;;;28.98;82.72
62072;BME280;48031;48.542;13.232;2023-09-12T09:09:24;97133.84;;;29.25;78.04
62072;BME280;48031;48.542;13.232;2023-09-12T09:13:25;97139.31;;;29.85;78.06
62072;BME280;48031;48.542;13.232;2023-09-12T09:17:28;97118.09;;;31.48;72.46
62072;BME280;48031;48.542;13.232;2023-09-12T09:21:38;97118.69;;;32.17;70.86
62072;BME280;48031;48.542;13.232;2023-09-12T09:25:51;97116.63;;;32.95;68.49
62072;BME280;48031;48.542;13.232;2023-09-12T09:29:53;97122.09;;;33.45;66.11
62072;BME280;48031;48.542;13.232;2023-09-12T09:34:00;97111.47;;;34.43;61.91
62072;BME280;48031;48.542;13.232;2023-09-12T09:38:06;97118.69;;;34.44;63.69
62072;BME280;48031;48.542;13.232;2023-09-12T09:42:10;97100.94;;;35.60;58.71
62072;BME280;48031;48.542;13.232;2023-09-12T09:46:17;97106.25;;;35.54;58.54
62072;BME280;48031;48.542;13.232;2023-09-12T09:50:19;97112.50;;;37.19;56.64
62072;BME280;48031;48.542;13.232;2023-09-12T09:54:23;97106.75;;;36.80;55.74
62072;BME280;48031;48.542;13.232;2023-09-12T09:58:26;97106.75;;;39.57;50.45
62072;BME280;48031;48.542;13.232;2023-09-12T10:02:28;97095.75;;;40.47;47.63
62072;BME280;48031;48.542;13.232;2023-09-12T10:06:32;97097.84;;;40.94;47.49
62072;BME280;48031;48.542;13.232;2023-09-12T10:10:38;97105.50;;;39.00;48.15
62072;BME280;48031;48.542;13.232;2023-09-12T10:14:40;97103.06;;;40.48;45.88
62072;BME280;48031;48.542;13.232;2023-09-12T10:23:38;97092.34;;;41.86;41.41
62072;BME280;48031;48.542;13.232;2023-09-12T10:27:44;97086.69;;;43.76;37.98
62072;BME280;48031;48.542;13.232;2023-09-12T10:31:47;97081.00;;;42.94;37.11
62072;BME280;48031;48.542;13.232;2023-09-12T10:35:50;97084.84;;;46.02;36.26
62072;BME280;48031;48.542;13.232;2023-09-12T10:39:53;97075.06;;;45.11;35.19
62072;BME280;48031;48.542;13.232;2023-09-12T10:43:57;97066.66;;;44.84;34.74
62072;BME280;48031;48.542;13.232;2023-09-12T10:47:59;97071.94;;;45.24;32.97
62072;BME280;48031;48.542;13.232;2023-09-12T10:52:02;97066.84;;;47.78;31.34
62072;BME280;48031;48.542;13.232;2023-09-12T10:56:16;97074.16;;;44.81;31.81
62072;BME280;48031;48.542;13.232;2023-09-12T11:00:18;97069.41;;;46.14;32.91
62072;BME280;48031;48.542;13.232;2023-09-12T11:08:26;97077.13;;;45.78;29.38
62072;BME280;48031;48.542;13.232;2023-09-12T11:12:35;61634.44;;;-142.07;100.00
62072;BME280;48031;48.542;13.232;2023-09-12T11:16:38;97075.34;;;44.42;35.66
62072;BME280;48031;48.542;13.232;2023-09-12T11:21:00;97080.38;;;42.90;36.16
62072;BME280;48031;48.542;13.232;2023-09-12T11:29:21;97065.03;;;44.68;33.94
62072;BME280;48031;48.542;13.232;2023-09-12T11:33:25;97051.22;;;45.58;31.92
62072;BME280;48031;48.542;13.232;2023-09-12T11:37:28;97054.38;;;45.45;30.15
62072;BME280;48031;48.542;13.232;2023-09-12T11:41:40;97056.19;;;47.12;29.85
62072;BME280;48031;48.542;13.232;2023-09-12T11:45:44;97057.38;;;45.27;30.05
62072;BME280;48031;48.542;13.232;2023-09-12T11:49:46;97055.97;;;43.95;30.29
62072;BME280;48031;48.542;13.232;2023-09-12T11:53:49;97058.31;;;43.54;32.25
62072;BME280;48031;48.542;13.232;2023-09-12T11:57:53;97049.13;;;45.44;30.77
62072;BME280;48031;48.542;13.232;2023-09-12T12:01:55;97047.75;;;46.88;28.41
62072;BME280;48031;48.542;13.232;2023-09-12T12:05:57;97050.13;;;43.89;33.33
62072;BME280;48031;48.542;13.232;2023-09-12T12:10:00;97040.81;;;46.74;28.24
62072;BME280;48031;48.542;13.232;2023-09-12T12:14:16;97038.84;;;48.89;28.13
62072;BME280;48031;48.542;13.232;2023-09-12T12:18:19;97030.66;;;49.58;25.59
62072;BME280;48031;48.542;13.232;2023-09-12T12:22:21;97030.66;;;49.58;25.59
62072;BME280;48031;48.542;13.232;2023-09-12T12:26:24;97033.09;;;49.00;24.89
62072;BME280;48031;48.542;13.232;2023-09-12T12:30:30;97027.94;;;51.76;22.19
62072;BME280;48031;48.542;13.232;2023-09-12T12:34:33;97013.59;;;52.24;21.37
62072;BME280;48031;48.542;13.232;2023-09-12T12:38:55;97021.66;;;51.72;23.92
62072;BME280;48031;48.542;13.232;2023-09-12T12:42:58;97016.28;;;53.83;18.90
62072;BME280;48031;48.542;13.232;2023-09-12T12:47:03;97004.69;;;48.28;23.00
62072;BME280;48031;48.542;13.232;2023-09-12T12:51:14;97006.97;;;47.82;24.23
62072;BME280;48031;48.542;13.232;2023-09-12T12:55:20;96999.44;;;46.66;25.94
62072;BME280;48031;48.542;13.232;2023-09-12T12:59:23;97004.34;;;47.52;24.21
62072;BME280;48031;48.542;13.232;2023-09-12T13:03:25;97000.06;;;43.84;26.28
62072;BME280;48031;48.542;13.232;2023-09-12T13:07:28;96993.53;;;43.93;29.60
62072;BME280;48031;48.542;13.232;2023-09-12T13:11:31;96996.59;;;42.75;27.78
62072;BME280;48031;48.542;13.232;2023-09-12T13:15:33;96994.41;;;41.19;34.62
62072;BME280;48031;48.542;13.232;2023-09-12T13:19:35;96990.78;;;40.62;32.42
62072;BME280;48031;48.542;13.232;2023-09-12T13:23:38;96983.38;;;39.41;38.25
62072;BME280;48031;48.542;13.232;2023-09-12T13:27:41;96982.13;;;40.06;39.10
62072;BME280;48031;48.542;13.232;2023-09-12T13:31:43;96986.72;;;39.24;40.56
62072;BME280;48031;48.542;13.232;2023-09-12T13:35:49;96977.59;;;38.75;42.48
62072;BME280;48031;48.542;13.232;2023-09-12T13:39:52;96980.59;;;36.82;48.23
62072;BME280;48031;48.542;13.232;2023-09-12T13:43:53;96978.22;;;36.38;47.95
62072;BME280;48031;48.542;13.232;2023-09-12T13:47:56;96964.72;;;38.41;46.57
62072;BME280;48031;48.542;13.232;2023-09-12T13:51:58;96966.72;;;37.96;48.81
62072;BME280;48031;48.542;13.232;2023-09-12T13:56:01;96973.28;;;37.40;50.96
62072;BME280;48031;48.542;13.232;2023-09-12T14:00:04;96969.47;;;37.67;49.25
62072;BME280;48031;48.542;13.232;2023-09-12T14:04:10;96968.91;;;35.67;52.25
62072;BME280;48031;48.542;13.232;2023-09-12T14:08:13;96981.44;;;35.05;58.34
62072;BME280;48031;48.542;13.232;2023-09-12T14:12:15;96973.28;;;35.95;54.76
62072;BME280;48031;48.542;13.232;2023-09-12T14:16:28;96963.16;;;41.37;43.77
62072;BME280;48031;48.542;13.232;2023-09-12T14:20:30;96958.91;;;45.16;32.93
62072;BME280;48031;48.542;13.232;2023-09-12T14:24:33;96953.69;;;45.58;30.42
62072;BME280;48031;48.542;13.232;2023-09-12T14:28:36;96956.28;;;47.07;29.61
62072;BME280;48031;48.542;13.232;2023-09-12T14:32:38;96956.56;;;47.35;28.13
62072;BME280;48031;48.542;13.232;2023-09-12T14:36:40;96957.38;;;47.98;29.16
62072;BME280;48031;48.542;13.232;2023-09-12T14:40:43;96968.78;;;42.29;36.29
62072;BME280;48031;48.542;13.232;2023-09-12T14:44:46;96948.72;;;44.85;30.73
62072;BME280;48031;48.542;13.232;2023-09-12T14:48:48;96949.22;;;44.12;32.92
62072;BME280;48031;48.542;13.232;2023-09-12T14:53:03;96949.19;;;46.21;30.55
62072;BME280;48031;48.542;13.232;2023-09-12T14:57:05;96946.91;;;48.38;26.74
62072;BME280;48031;48.542;13.232;2023-09-12T15:01:07;96950.66;;;47.18;26.37
62072;BME280;48031;48.542;13.232;2023-09-12T15:05:09;96950.78;;;47.03;25.54
62072;BME280;48031;48.542;13.232;2023-09-12T15:09:12;96947.16;;;45.58;28.32
62072;BME280;48031;48.542;13.232;2023-09-12T15:13:14;96949.72;;;45.41;28.72
62072;BME280;48031;48.542;13.232;2023-09-12T15:17:20;96938.38;;;48.17;26.62
62072;BME280;48031;48.542;13.232;2023-09-12T15:21:22;96946.97;;;45.61;29.83
62072;BME280;48031;48.542;13.232;2023-09-12T15:25:24;96944.19;;;41.43;34.10
62072;BME280;48031;48.542;13.232;2023-09-12T15:29:26;96943.56;;;42.92;33.56
62072;BME280;48031;48.542;13.232;2023-09-12T15:33:28;96947.44;;;43.82;35.13
62072;BME280;48031;48.542;13.232;2023-09-12T15:37:31;96941.41;;;43.89;31.86
62072;BME280;48031;48.542;13.232;2023-09-12T15:41:34;96948.25;;;41.95;36.71
62072;BME280;48031;48.542;13.232;2023-09-12T15:45:36;96939.38;;;43.80;32.20
62072;BME280;48031;48.542;13.232;2023-09-12T15:49:51;96932.91;;;45.34;29.70
62072;BME280;48031;48.542;13.232;2023-09-12T15:53:53;96947.78;;;42.05;35.54
62072;BME280;48031;48.542;13.232;2023-09-12T15:57:55;96926.84;;;44.73;30.54
62072;BME280;48031;48.542;13.232;2023-09-12T16:01:56;96918.94;;;44.68;30.58
62072;BME280;48031;48.542;13.232;2023-09-12T16:05:59;96938.91;;;42.03;33.32
62072;BME280;48031;48.542;13.232;2023-09-12T16:10:02;96929.78;;;41.77;37.54
62072;BME280;48031;48.542;13.232;2023-09-12T16:14:04;96930.56;;;42.82;35.03
62072;BME280;48031;48.542;13.232;2023-09-12T16:18:06;96935.81;;;40.52;37.36
62072;BME280;48031;48.542;13.232;2023-09-12T16:22:08;96935.50;;;41.16;37.21
62072;BME280;48031;48.542;13.232;2023-09-12T16:26:11;96935.50;;;41.16;37.21
62072;BME280;48031;48.542;13.232;2023-09-12T16:30:13;96924.84;;;42.36;36.61
62072;BME280;48031;48.542;13.232;2023-09-12T16:34:16;96927.91;;;41.13;38.62
62072;BME280;48031;48.542;13.232;2023-09-12T16:38:18;96924.72;;;40.89;38.72
62072;BME280;48031;48.542;13.232;2023-09-12T16:42:20;96923.09;;;41.62;36.67
62072;BME280;48031;48.542;13.232;2023-09-12T16:46:22;96942.31;;;39.17;41.49
62072;BME280;48031;48.542;13.232;2023-09-12T16:50:25;96941.56;;;37.98;43.53
62072;BME280;48031;48.542;13.232;2023-09-12T16:54:27;96940.81;;;33.91;52.70
62072;BME280;48031;48.542;13.232;2023-09-12T16:58:31;96944.56;;;31.92;61.20
62072;BME280;48031;48.542;13.232;2023-09-12T17:02:34;96938.75;;;30.75;67.54
62072;BME280;48031;48.542;13.232;2023-09-12T17:06:37;96935.44;;;30.48;68.81
62072;BME280;48031;48.542;13.232;2023-09-12T17:10:40;96933.09;;;30.58;67.87
62072;BME280;48031;48.542;13.232;2023-09-12T17:14:42;96932.72;;;29.94;69.63
62072;BME280;48031;48.542;13.232;2023-09-12T17:18:44;96934.38;;;30.02;69.00
62072;BME280;48031;48.542;13.232;2023-09-12T17:22:46;96931.03;;;29.86;70.03
62072;BME280;48031;48.542;13.232;2023-09-12T17:26:49;96936.88;;;29.66;71.32
62072;BME280;48031;48.542;13.232;2023-09-12T17:30:50;96930.00;;;30.08;69.69
62072;BME280;48031;48.542;13.232;2023-09-12T17:34:53;96925.53;;;29.45;72.00
62072;BME280;48031;48.542;13.232;2023-09-12T17:38:57;96927.50;;;29.04;72.66
62072;BME280;48031;48.542;13.232;2023-09-12T17:42:59;96932.00;;;29.12;72.02
62072;BME280;48031;48.542;13.232;2023-09-12T17:47:02;96936.34;;;29.10;72.79
62072;BME280;48031;48.542;13.232;2023-09-12T17:51:04;96947.44;;;28.36;74.09
62072;BME280;48031;48.542;13.232;2023-09-12T17:55:06;96944.47;;;27.95;75.44
62072;BME280;48031;48.542;13.232;2023-09-12T17:59:09;96953.25;;;27.71;75.85
62072;BME280;48031;48.542;13.232;2023-09-12T18:03:11;96954.16;;;27.52;76.94
62072;BME280;48031;48.542;13.232;2023-09-12T18:07:14;96961.56;;;27.67;76.78
62072;BME280;48031;48.542;13.232;2023-09-12T18:11:16;96978.16;;;27.83;77.94
62072;BME280;48031;48.542;13.232;2023-09-12T18:15:18;96993.81;;;28.44;76.27
62072;BME280;48031;48.542;13.232;2023-09-12T18:19:21;97012.06;;;28.11;77.82
62072;BME280;48031;48.542;13.232;2023-09-12T18:23:24;97014.78;;;27.82;78.57
62072;BME280;48031;48.542;13.232;2023-09-12T18:27:27;97023.50;;;27.35;80.36
62072;BME280;48031;48.542;13.232;2023-09-12T18:31:29;97029.47;;;28.01;78.02
62072;BME280;48031;48.542;13.232;2023-09-12T18:35:31;97048.19;;;27.55;79.99
62072;BME280;48031;48.542;13.232;2023-09-12T18:39:33;97053.72;;;27.52;80.91
62072;BME280;48031;48.542;13.232;2023-09-12T18:43:36;97039.53;;;26.99;82.21
62072;BME280;48031;48.542;13.232;2023-09-12T18:47:38;97032.78;;;26.27;85.09
62072;BME280;48031;48.542;13.232;2023-09-12T18:51:40;97033.88;;;26.57;83.76
62072;BME280;48031;48.542;13.232;2023-09-12T18:55:43;97026.19;;;27.08;82.35
62072;BME280;48031;48.542;13.232;2023-09-12T18:59:45;97022.34;;;27.16;82.23
62072;BME280;48031;48.542;13.232;2023-09-12T19:03:48;97019.25;;;27.41;80.59
62072;BME280;48031;48.542;13.232;2023-09-12T19:07:53;97029.69;;;27.24;79.67
62072;BME280;48031;48.542;13.232;2023-09-12T19:11:55;97051.50;;;26.65;84.21
62072;BME280;48031;48.542;13.232;2023-09-12T19:15:59;97051.34;;;26.93;83.39
62072;BME280;48031;48.542;13.232;2023-09-12T19:20:02;97057.19;;;26.33;86.52
62072;BME280;48031;48.542;13.232;2023-09-12T19:24:05;97054.59;;;26.60;85.23
62072;BME280;48031;48.542;13.232;2023-09-12T19:28:08;97050.78;;;26.87;83.64
62072;BME280;48031;48.542;13.232;2023-09-12T19:32:11;97042.59;;;26.75;83.55
62072;BME280;48031;48.542;13.232;2023-09-12T19:36:15;97043.50;;;26.44;85.63
62072;BME280;48031;48.542;13.232;2023-09-12T19:40:18;97043.44;;;26.60;84.89
62072;BME280;48031;48.542;13.232;2023-09-12T19:44:20;97033.78;;;26.54;84.68
62072;BME280;48031;48.542;13.232;2023-09-12T19:48:22;97028.94;;;26.51;85.63
62072;BME280;48031;48.542;13.232;2023-09-12T19:52:24;97031.00;;;26.03;86.09
62072;BME280;48031;48.542;13.232;2023-09-12T19:56:26;97047.41;;;26.59;83.94
62072;BME280;48031;48.542;13.232;2023-09-12T20:00:28;97047.31;;;26.36;85.29
62072;BME280;48031;48.542;13.232;2023-09-12T20:04:30;97054.31;;;26.14;87.09
62072;BME280;48031;48.542;13.232;2023-09-12T20:08:36;97062.78;;;26.02;87.43
62072;BME280;48031;48.542;13.232;2023-09-12T20:12:39;97050.19;;;26.39;86.41
62072;BME280;48031;48.542;13.232;2023-09-12T20:16:42;97054.16;;;26.07;86.65
62072;BME280;48031;48.542;13.232;2023-09-12T20:20:45;97066.44;;;26.22;86.38
62072;BME280;48031;48.542;13.232;2023-09-12T20:24:48;97070.69;;;25.84;87.20
62072;BME280;48031;48.542;13.232;2023-09-12T20:28:51;97074.34;;;25.88;88.87
62072;BME280;48031;48.542;13.232;2023-09-12T20:33:03;97073.91;;;26.02;86.46
62072;BME280;48031;48.542;13.232;2023-09-12T20:37:08;97079.22;;;25.48;89.10
62072;BME280;48031;48.542;13.232;2023-09-12T20:41:10;97077.50;;;25.87;85.97
62072;BME280;48031;48.542;13.232;2023-09-12T20:45:13;97094.66;;;25.45;89.22
62072;BME280;48031;48.542;13.232;2023-09-12T20:49:15;97088.53;;;25.83;87.46
62072;BME280;48031;48.542;13.232;2023-09-12T20:53:17;97087.28;;;25.96;86.89
62072;BME280;48031;48.542;13.232;2023-09-12T20:57:19;97083.44;;;25.85;87.49
62072;BME280;48031;48.542;13.232;2023-09-12T21:01:23;97076.44;;;26.07;86.40
62072;BME280;48031;48.542;13.232;2023-09-12T21:05:25;97081.41;;;25.54;88.01
62072;BME280;48031;48.542;13.232;2023-09-12T21:09:28;97080.75;;;25.30;88.23
62072;BME280;48031;48.542;13.232;2023-09-12T21:13:30;97070.47;;;26.08;83.88
62072;BME280;48031;48.542;13.232;2023-09-12T21:17:35;97054.25;;;25.20;84.91
62072;BME280;48031;48.542;13.232;2023-09-12T21:21:40;97049.34;;;25.57;84.39
62072;BME280;48031;48.542;13.232;2023-09-12T21:25:42;97060.13;;;25.74;85.05